Time;durP1;ratioP1;P1;durP2;ratioP2;P2;SDS_P1;SDS_P2;PMS_P1;PMS_P2;Temp;Humidity;BMP_temperature;BMP_pressure;BME280_temperature;BME280_humidity;BME280_pressure;Samples;Min_cycle;Max_cycle;Signal;HPM_P1;HPM_P2
2023/11/29 00:00:22;;;;;;;13.55;8.55;;;;;;;;;;5023645;28;20179;-78
2023/11/29 00:02:48;;;;;;;13.85;8.65;;;;;;;;;;5024624;28;20175;-78
2023/11/29 00:05:14;;;;;;;11.20;7.03;;;;;;;;;;5023891;28;20225;-78
2023/11/29 00:07:43;;;;;;;12.27;8.45;;;;;;;;;;5023961;28;20190;-78
2023/11/29 00:10:10;;;;;;;13.02;8.35;;;;;;;;;;5023027;28;20178;-78
2023/11/29 00:12:36;;;;;;;12.85;8.90;;;;;;;;;;5023894;28;20179;-77
2023/11/29 00:15:03;;;;;;;11.10;8.10;;;;;;;;;;5023232;28;20549;-79
2023/11/29 00:17:30;;;;;;;13.13;7.72;;;;;;;;;;5023855;28;20174;-77
2023/11/29 00:19:56;;;;;;;13.13;8.00;;;;;;;;;;5023971;28;20204;-78
2023/11/29 00:22:22;;;;;;;13.27;8.50;;;;;;;;;;5023898;28;20220;-78
2023/11/29 00:24:48;;;;;;;13.50;9.20;;;;;;;;;;5023934;28;20219;-77
2023/11/29 00:27:17;;;;;;;12.68;8.43;;;;;;;;;;5023026;28;20712;-78
2023/11/29 00:29:43;;;;;;;10.50;7.47;;;;;;;;;;5023133;28;20567;-77
2023/11/29 00:32:10;;;;;;;11.10;7.60;;;;;;;;;;5024238;28;20575;-77
2023/11/29 00:34:36;;;;;;;12.68;7.68;;;;;;;;;;5022848;28;20202;-77
2023/11/29 00:37:04;;;;;;;11.73;8.38;;;;;;;;;;5022884;28;20235;-77
2023/11/29 00:39:30;;;;;;;12.02;8.50;;;;;;;;;;5022807;28;20638;-77
2023/11/29 00:41:56;;;;;;;11.68;7.32;;;;;;;;;;5022859;28;20241;-78
2023/11/29 00:44:22;;;;;;;11.70;7.90;;;;;;;;;;5023376;28;20300;-78
2023/11/29 00:46:48;;;;;;;12.25;8.75;;;;;;;;;;5023006;28;20489;-77
2023/11/29 00:49:17;;;;;;;12.90;7.78;;;;;;;;;;5022912;28;20210;-77
2023/11/29 00:51:43;;;;;;;12.48;7.78;;;;;;;;;;5023457;28;20198;-77
2023/11/29 00:54:09;;;;;;;10.35;7.82;;;;;;;;;;5022468;28;20182;-78
2023/11/29 00:56:35;;;;;;;13.83;8.30;;;;;;;;;;5022916;28;20232;-78
2023/11/29 00:59:01;;;;;;;13.53;8.17;;;;;;;;;;5022583;28;20413;-78
2023/11/29 01:01:27;;;;;;;12.50;7.43;;;;;;;;;;5023795;28;20482;-77
2023/11/29 01:03:53;;;;;;;13.07;7.78;;;;;;;;;;5022553;28;20523;-79
2023/11/29 01:06:19;;;;;;;11.40;8.00;;;;;;;;;;5022936;28;20257;-77
2023/11/29 01:08:45;;;;;;;12.20;8.50;;;;;;;;;;5022762;28;20414;-77
2023/11/29 01:11:11;;;;;;;10.30;7.47;;;;;;;;;;5023236;28;20190;-77
2023/11/29 01:13:37;;;;;;;13.88;8.40;;;;;;;;;;5021954;28;20429;-78
2023/11/29 01:16:03;;;;;;;9.50;7.35;;;;;;;;;;5022831;28;20194;-78
2023/11/29 01:18:32;;;;;;;11.82;8.00;;;;;;;;;;5023159;28;20230;-78
2023/11/29 01:20:58;;;;;;;14.32;8.15;;;;;;;;;;5022312;28;20653;-78
2023/11/29 01:23:24;;;;;;;11.02;7.72;;;;;;;;;;5022920;28;20246;-77
2023/11/29 01:25:51;;;;;;;10.30;8.30;;;;;;;;;;5023604;28;20208;-78
2023/11/29 01:28:17;;;;;;;12.95;7.22;;;;;;;;;;5022747;28;20258;-78
2023/11/29 01:30:43;;;;;;;10.00;7.43;;;;;;;;;;5023196;28;20183;-77
2023/11/29 01:33:08;;;;;;;12.20;8.48;;;;;;;;;;5023193;28;20185;-78
2023/11/29 01:35:34;;;;;;;10.18;7.32;;;;;;;;;;5023061;28;20518;-77
2023/11/29 01:38:00;;;;;;;10.90;7.27;;;;;;;;;;5022870;28;20241;-78
2023/11/29 01:40:26;;;;;;;16.03;8.27;;;;;;;;;;5022737;28;20410;-78
2023/11/29 01:42:53;;;;;;;10.32;7.47;;;;;;;;;;5022714;28;20422;-78
2023/11/29 01:45:19;;;;;;;15.73;7.75;;;;;;;;;;5022676;28;20219;-78
2023/11/29 01:47:44;;;;;;;9.52;6.90;;;;;;;;;;5022495;28;20183;-77
2023/11/29 01:50:11;;;;;;;12.30;7.60;;;;;;;;;;5021950;28;20191;-78
2023/11/29 01:52:37;;;;;;;9.18;6.82;;;;;;;;;;5022358;28;20520;-78
2023/11/29 01:55:05;;;;;;;13.68;7.20;;;;;;;;;;5022508;28;20186;-78
2023/11/29 01:57:31;;;;;;;9.57;6.40;;;;;;;;;;5022809;28;20265;-77
2023/11/29 01:59:57;;;;;;;12.93;7.17;;;;;;;;;;5022474;28;20770;-78
2023/11/29 02:02:23;;;;;;;12.05;7.50;;;;;;;;;;5022748;28;20414;-78
2023/11/29 02:04:50;;;;;;;9.70;6.60;;;;;;;;;;5022252;28;20215;-77
2023/11/29 02:07:16;;;;;;;12.43;6.88;;;;;;;;;;5021484;28;20540;-77
2023/11/29 02:09:42;;;;;;;13.38;8.43;;;;;;;;;;5020847;28;20211;-78
2023/11/29 02:12:08;;;;;;;12.85;8.30;;;;;;;;;;5021129;28;20621;-78
2023/11/29 02:14:41;;;;;;;9.48;6.63;;;;;;;;;;5021677;28;20183;-77
2023/11/29 02:17:07;;;;;;;10.35;6.68;;;;;;;;;;5022021;28;20651;-78
2023/11/29 02:19:33;;;;;;;9.65;6.70;;;;;;;;;;5022666;28;20179;-77
2023/11/29 02:21:59;;;;;;;9.10;6.30;;;;;;;;;;5021768;28;20185;-77
2023/11/29 02:24:29;;;;;;;13.23;8.20;;;;;;;;;;5022649;28;20268;-77
2023/11/29 02:26:55;;;;;;;10.43;7.35;;;;;;;;;;5021890;28;20222;-77
2023/11/29 02:29:21;;;;;;;13.50;8.45;;;;;;;;;;5021604;28;20175;-77
2023/11/29 02:31:47;;;;;;;10.77;6.97;;;;;;;;;;5022738;28;20186;-77
2023/11/29 02:34:13;;;;;;;10.97;7.70;;;;;;;;;;5025609;28;20551;-78
2023/11/29 02:36:39;;;;;;;11.47;8.33;;;;;;;;;;5025827;28;20404;-77
2023/11/29 02:39:05;;;;;;;14.77;8.60;;;;;;;;;;5025281;28;20436;-78
2023/11/29 02:41:31;;;;;;;14.25;8.80;;;;;;;;;;5025681;28;20409;-77
2023/11/29 02:43:58;;;;;;;12.70;8.53;;;;;;;;;;5025500;28;20685;-77
2023/11/29 02:46:24;;;;;;;9.48;7.05;;;;;;;;;;5025369;28;20925;-77
2023/11/29 02:48:50;;;;;;;9.07;7.40;;;;;;;;;;5025270;28;20178;-77
2023/11/29 02:51:16;;;;;;;10.45;7.13;;;;;;;;;;5024486;28;20435;-78
2023/11/29 02:53:42;;;;;;;11.17;7.97;;;;;;;;;;5025632;28;20216;-77
2023/11/29 02:56:09;;;;;;;13.93;7.45;;;;;;;;;;5024630;28;20414;-78
2023/11/29 02:58:35;;;;;;;15.65;9.00;;;;;;;;;;5025195;28;20186;-77
2023/11/29 03:01:01;;;;;;;12.40;8.33;;;;;;;;;;5024128;28;20187;-78
2023/11/29 03:03:27;;;;;;;12.40;7.80;;;;;;;;;;5024651;28;20406;-77
2023/11/29 03:05:53;;;;;;;10.30;7.38;;;;;;;;;;5025545;28;20585;-77
2023/11/29 03:08:19;;;;;;;14.33;8.20;;;;;;;;;;5025565;28;20183;-78
2023/11/29 03:10:45;;;;;;;17.80;8.52;;;;;;;;;;5025116;28;20425;-78
2023/11/29 03:13:11;;;;;;;12.65;8.70;;;;;;;;;;5024632;28;20194;-78
2023/11/29 03:15:37;;;;;;;11.40;7.70;;;;;;;;;;5025355;28;20186;-77
2023/11/29 03:18:03;;;;;;;12.40;7.77;;;;;;;;;;5025246;28;20657;-78
2023/11/29 03:20:29;;;;;;;11.35;7.57;;;;;;;;;;5025315;28;20457;-77
2023/11/29 03:22:55;;;;;;;11.70;6.80;;;;;;;;;;5024078;28;20194;-77
2023/11/29 03:25:21;;;;;;;14.70;8.67;;;;;;;;;;5024724;28;20745;-77
2023/11/29 03:27:46;;;;;;;12.43;8.00;;;;;;;;;;5024405;28;20481;-78
2023/11/29 03:30:13;;;;;;;19.40;9.77;;;;;;;;;;5023155;28;20500;-78
2023/11/29 03:32:39;;;;;;;15.55;9.25;;;;;;;;;;5025052;28;20418;-77
2023/11/29 03:35:05;;;;;;;16.13;7.97;;;;;;;;;;5024400;28;20210;-78
2023/11/29 03:37:31;;;;;;;12.60;7.75;;;;;;;;;;5023545;28;20480;-78
2023/11/29 03:39:57;;;;;;;12.00;8.70;;;;;;;;;;5024070;28;20203;-78
2023/11/29 03:42:23;;;;;;;15.13;8.20;;;;;;;;;;5023921;28;20809;-77
2023/11/29 03:44:49;;;;;;;14.50;8.02;;;;;;;;;;5024324;28;20825;-77
2023/11/29 03:47:15;;;;;;;14.75;9.32;;;;;;;;;;5024066;28;20175;-78
2023/11/29 03:49:41;;;;;;;15.40;8.32;;;;;;;;;;5024284;28;20207;-78
2023/11/29 03:52:07;;;;;;;17.05;9.30;;;;;;;;;;5023556;28;20179;-78
2023/11/29 03:54:33;;;;;;;14.50;9.03;;;;;;;;;;5024324;28;20217;-78
2023/11/29 03:56:59;;;;;;;15.30;9.10;;;;;;;;;;5023664;28;20431;-78
2023/11/29 03:59:25;;;;;;;15.52;8.80;;;;;;;;;;5024077;28;20410;-77
2023/11/29 04:01:51;;;;;;;17.53;10.20;;;;;;;;;;5023280;28;20225;-77
2023/11/29 04:04:17;;;;;;;14.77;9.17;;;;;;;;;;5023061;28;20532;-77
2023/11/29 04:06:43;;;;;;;14.47;8.20;;;;;;;;;;5023716;28;20826;-78
2023/11/29 04:09:09;;;;;;;16.60;9.13;;;;;;;;;;5023684;28;20426;-78
2023/11/29 04:11:35;;;;;;;16.83;10.20;;;;;;;;;;5023788;28;20175;-78
2023/11/29 04:14:01;;;;;;;13.15;8.27;;;;;;;;;;5023277;28;20183;-77
2023/11/29 04:16:27;;;;;;;15.35;8.98;;;;;;;;;;5023745;28;20620;-77
2023/11/29 04:18:54;;;;;;;19.83;9.38;;;;;;;;;;5024254;28;20179;-78
2023/11/29 04:21:20;;;;;;;15.85;10.30;;;;;;;;;;5022721;28;20202;-78
2023/11/29 04:23:46;;;;;;;16.73;9.55;;;;;;;;;;5023446;28;20206;-77
2023/11/29 04:26:22;;;;;;;14.27;8.52;;;;;;;;;;5023208;28;20175;-78
2023/11/29 04:28:48;;;;;;;16.25;8.60;;;;;;;;;;5023363;28;20182;-77
2023/11/29 04:31:14;;;;;;;19.20;10.07;;;;;;;;;;5022068;28;20215;-78
2023/11/29 04:33:40;;;;;;;16.95;9.85;;;;;;;;;;5023098;28;20415;-77
2023/11/29 04:36:09;;;;;;;11.80;6.55;;;;;;;;;;5021497;28;20186;-78
2023/11/29 04:38:35;;;;;;;19.17;9.15;;;;;;;;;;5023309;28;20190;-77
2023/11/29 04:41:01;;;;;;;17.33;9.30;;;;;;;;;;5022245;28;20175;-77
2023/11/29 04:43:32;;;;;;;13.45;8.02;;;;;;;;;;5021562;28;20965;-77
2023/11/29 04:45:58;;;;;;;16.20;8.85;;;;;;;;;;5021414;28;20187;-78
2023/11/29 04:48:24;;;;;;;12.55;6.85;;;;;;;;;;5021776;28;20172;-77
2023/11/29 04:50:50;;;;;;;13.40;8.13;;;;;;;;;;5022431;28;20188;-77
2023/11/29 04:53:16;;;;;;;16.58;9.27;;;;;;;;;;5021984;28;20885;-77
2023/11/29 04:55:42;;;;;;;12.02;8.77;;;;;;;;;;5022680;28;20212;-77
2023/11/29 04:58:08;;;;;;;13.35;7.80;;;;;;;;;;5037695;28;20185;-78
2023/11/29 05:00:34;;;;;;;11.70;7.67;;;;;;;;;;5022375;28;20181;-77
2023/11/29 05:03:00;;;;;;;14.00;9.03;;;;;;;;;;5022839;28;20472;-77
2023/11/29 05:05:27;;;;;;;13.33;8.47;;;;;;;;;;5022819;28;20467;-78
2023/11/29 05:07:53;;;;;;;15.25;8.98;;;;;;;;;;5021941;28;20439;-78
2023/11/29 05:10:19;;;;;;;13.63;9.23;;;;;;;;;;5021630;28;20512;-78
2023/11/29 05:12:46;;;;;;;13.88;9.20;;;;;;;;;;5022708;28;20190;-78
2023/11/29 05:15:12;;;;;;;19.35;8.70;;;;;;;;;;5021790;28;20337;-78
2023/11/29 05:17:38;;;;;;;15.93;9.27;;;;;;;;;;5021705;28;20590;-78
2023/11/29 05:20:04;;;;;;;18.35;11.52;;;;;;;;;;5021755;28;20204;-79
2023/11/29 05:22:30;;;;;;;17.02;11.05;;;;;;;;;;5021103;28;20175;-79
2023/11/29 05:24:56;;;;;;;12.95;8.15;;;;;;;;;;5021423;28;20709;-78
2023/11/29 05:27:23;;;;;;;14.77;8.40;;;;;;;;;;5021595;28;20238;-79
2023/11/29 05:29:49;;;;;;;12.07;8.07;;;;;;;;;;5021002;28;20179;-79
2023/11/29 05:32:15;;;;;;;15.18;8.60;;;;;;;;;;5021737;28;20182;-78
2023/11/29 05:34:41;;;;;;;9.90;7.20;;;;;;;;;;5022090;28;20194;-78
2023/11/29 05:37:11;;;;;;;14.98;9.07;;;;;;;;;;5021865;28;20220;-78
2023/11/29 05:39:37;;;;;;;15.35;9.70;;;;;;;;;;5020963;28;20259;-78
2023/11/29 05:42:06;;;;;;;11.77;8.77;;;;;;;;;;5020715;28;20191;-79
2023/11/29 05:44:32;;;;;;;23.50;9.60;;;;;;;;;;5021717;28;20505;-78
2023/11/29 05:46:59;;;;;;;14.05;10.40;;;;;;;;;;5021711;28;20175;-78
2023/11/29 05:49:25;;;;;;;17.48;9.63;;;;;;;;;;5021105;28;20674;-78
2023/11/29 05:51:51;;;;;;;19.20;9.20;;;;;;;;;;5021046;28;20175;-78
2023/11/29 05:54:18;;;;;;;12.02;8.38;;;;;;;;;;5021308;28;20435;-79
2023/11/29 05:56:44;;;;;;;16.55;9.52;;;;;;;;;;5021811;28;20235;-78
2023/11/29 05:59:11;;;;;;;17.77;6.13;;;;;;;;;;5020485;28;20622;-80
2023/11/29 06:01:37;;;;;;;11.68;7.03;;;;;;;;;;5020447;28;20647;-78
2023/11/29 06:04:04;;;;;;;14.05;8.95;;;;;;;;;;5019677;28;20207;-82
2023/11/29 06:06:30;;;;;;;16.15;10.95;;;;;;;;;;5020089;28;20180;-81
2023/11/29 06:08:57;;;;;;;15.77;9.05;;;;;;;;;;5022510;28;20183;-81
2023/11/29 06:11:23;;;;;;;17.33;8.80;;;;;;;;;;5022326;28;20197;-81
2023/11/29 06:13:51;;;;;;;10.88;7.30;;;;;;;;;;5037522;28;20191;-80
2023/11/29 06:16:17;;;;;;;9.05;6.50;;;;;;;;;;5022844;28;20531;-82
2023/11/29 06:18:43;;;;;;;17.67;11.30;;;;;;;;;;5022590;28;20178;-81
2023/11/29 06:21:09;;;;;;;14.40;10.80;;;;;;;;;;5021199;28;20191;-81
2023/11/29 06:23:36;;;;;;;12.73;7.55;;;;;;;;;;5021282;28;20427;-81
2023/11/29 06:26:04;;;;;;;18.05;8.95;;;;;;;;;;5021681;28;20185;-81
2023/11/29 06:28:30;;;;;;;17.27;9.32;;;;;;;;;;5021628;28;20274;-81
2023/11/29 06:30:57;;;;;;;15.77;9.03;;;;;;;;;;5020922;28;20185;-80
2023/11/29 06:33:23;;;;;;;17.42;10.65;;;;;;;;;;5021718;28;20473;-81
2023/11/29 06:35:49;;;;;;;19.10;9.90;;;;;;;;;;5020122;28;20699;-81
2023/11/29 06:38:15;;;;;;;20.30;11.20;;;;;;;;;;5021110;28;20756;-81
2023/11/29 06:40:42;;;;;;;11.00;6.03;;;;;;;;;;5036971;28;20467;-80
2023/11/29 06:43:08;;;;;;;15.93;9.20;;;;;;;;;;5036190;28;20404;-82
2023/11/29 06:45:34;;;;;;;14.30;10.10;;;;;;;;;;5020771;28;20213;-81
2023/11/29 06:48:00;;;;;;;15.32;10.30;;;;;;;;;;5021675;28;20429;-81
2023/11/29 06:50:28;;;;;;;16.30;9.43;;;;;;;;;;5019376;28;20707;-81
2023/11/29 06:52:54;;;;;;;17.70;9.40;;;;;;;;;;5020407;28;20188;-82
2023/11/29 06:55:20;;;;;;;14.33;9.20;;;;;;;;;;5020931;28;20182;-82
2023/11/29 06:57:46;;;;;;;17.20;9.53;;;;;;;;;;5021502;28;20460;-81
2023/11/29 07:00:16;;;;;;;11.93;7.75;;;;;;;;;;5021536;28;20978;-81
2023/11/29 07:02:42;;;;;;;17.55;10.25;;;;;;;;;;5021495;28;20254;-81
2023/11/29 07:05:09;;;;;;;17.52;11.35;;;;;;;;;;5020928;28;20242;-80
2023/11/29 07:07:35;;;;;;;14.23;8.60;;;;;;;;;;5021159;28;20249;-81
2023/11/29 07:10:02;;;;;;;21.33;11.90;;;;;;;;;;5021789;28;20179;-81
2023/11/29 07:12:28;;;;;;;20.50;12.38;;;;;;;;;;5019816;28;20187;-81
2023/11/29 07:14:54;;;;;;;17.52;10.00;;;;;;;;;;5020979;28;20666;-81
2023/11/29 07:17:21;;;;;;;17.13;11.18;;;;;;;;;;5020459;28;20218;-80
2023/11/29 07:19:47;;;;;;;17.25;11.07;;;;;;;;;;5020932;28;20176;-81
2023/11/29 07:22:14;;;;;;;17.10;11.40;;;;;;;;;;5021182;28;20546;-81
2023/11/29 07:24:40;;;;;;;18.77;11.98;;;;;;;;;;5021546;28;20282;-81
2023/11/29 07:27:07;;;;;;;24.27;12.10;;;;;;;;;;5021235;28;20236;-80
2023/11/29 07:29:33;;;;;;;16.38;9.73;;;;;;;;;;5019787;28;20199;-81
2023/11/29 07:31:59;;;;;;;17.00;11.90;;;;;;;;;;5021588;28;20216;-81
2023/11/29 07:34:25;;;;;;;15.82;10.30;;;;;;;;;;5020370;28;20534;-80
2023/11/29 07:36:54;;;;;;;18.05;10.82;;;;;;;;;;5020372;28;20185;-81
2023/11/29 07:39:20;;;;;;;16.95;12.10;;;;;;;;;;5021305;28;20629;-81
2023/11/29 07:41:47;;;;;;;17.30;12.18;;;;;;;;;;5036350;28;20170;-80
2023/11/29 07:44:13;;;;;;;18.80;12.02;;;;;;;;;;5021929;28;20259;-80
2023/11/29 07:46:39;;;;;;;25.83;13.40;;;;;;;;;;5021222;28;20172;-81
2023/11/29 07:49:05;;;;;;;21.08;14.52;;;;;;;;;;5020858;28;20186;-81
2023/11/29 07:51:31;;;;;;;21.38;11.93;;;;;;;;;;5020809;28;20179;-81
2023/11/29 07:53:57;;;;;;;21.60;11.90;;;;;;;;;;5036383;28;20185;-80
2023/11/29 07:56:23;;;;;;;22.30;12.13;;;;;;;;;;5019377;28;20828;-81
2023/11/29 07:58:49;;;;;;;21.85;13.07;;;;;;;;;;5019718;28;20782;-81
2023/11/29 08:01:15;;;;;;;19.95;16.23;;;;;;;;;;5036507;28;20657;-80
2023/11/29 08:03:41;;;;;;;21.60;13.32;;;;;;;;;;5020313;28;20197;-82
2023/11/29 08:06:07;;;;;;;22.17;12.38;;;;;;;;;;5036057;28;20239;-81
2023/11/29 08:08:36;;;;;;;22.85;11.43;;;;;;;;;;5020589;28;20203;-81
2023/11/29 08:11:02;;;;;;;24.45;12.40;;;;;;;;;;5019673;28;20173;-82
2023/11/29 08:13:28;;;;;;;20.23;12.57;;;;;;;;;;5020085;28;20269;-82
2023/11/29 08:15:56;;;;;;;20.02;12.63;;;;;;;;;;5019815;28;20469;-82
2023/11/29 08:18:22;;;;;;;16.02;11.45;;;;;;;;;;5019732;28;20179;-80
2023/11/29 08:20:48;;;;;;;21.00;11.82;;;;;;;;;;5020628;28;20167;-81
2023/11/29 08:23:14;;;;;;;17.58;11.43;;;;;;;;;;5020233;28;20178;-80
2023/11/29 08:25:40;;;;;;;17.30;11.00;;;;;;;;;;5035036;28;20562;-82
2023/11/29 08:28:06;;;;;;;16.10;10.00;;;;;;;;;;5019711;28;20497;-82
2023/11/29 08:30:32;;;;;;;18.35;11.35;;;;;;;;;;5019912;28;20408;-81
2023/11/29 08:32:58;;;;;;;17.27;11.75;;;;;;;;;;5020184;28;20170;-80
2023/11/29 08:35:24;;;;;;;16.00;11.83;;;;;;;;;;5034953;28;20193;-81
2023/11/29 08:37:50;;;;;;;18.40;12.57;;;;;;;;;;5020114;28;20492;-80
2023/11/29 08:40:16;;;;;;;16.40;10.73;;;;;;;;;;5019659;28;20219;-80
2023/11/29 08:42:43;;;;;;;13.40;10.05;;;;;;;;;;5018080;28;20425;-80
2023/11/29 08:45:09;;;;;;;18.10;10.73;;;;;;;;;;5019367;28;20743;-80
2023/11/29 08:47:36;;;;;;;12.02;8.75;;;;;;;;;;5019712;28;20282;-80
2023/11/29 08:50:02;;;;;;;18.35;11.50;;;;;;;;;;5018413;28;20214;-80
2023/11/29 08:52:28;;;;;;;17.90;11.93;;;;;;;;;;5020062;28;20178;-81
2023/11/29 08:54:54;;;;;;;15.95;10.07;;;;;;;;;;5020351;28;20630;-80
2023/11/29 08:57:23;;;;;;;15.07;10.37;;;;;;;;;;5034635;28;20188;-81
2023/11/29 08:59:53;;;;;;;19.67;11.05;;;;;;;;;;5035090;28;20404;-81
2023/11/29 09:02:20;;;;;;;21.73;10.88;;;;;;;;;;5018251;28;20189;-81
2023/11/29 09:04:46;;;;;;;20.75;11.52;;;;;;;;;;5019403;28;20217;-81
2023/11/29 09:07:12;;;;;;;14.77;10.05;;;;;;;;;;5018607;28;20284;-80
2023/11/29 09:09:40;;;;;;;14.88;10.60;;;;;;;;;;5019058;28;20188;-81
2023/11/29 09:12:06;;;;;;;10.40;6.93;;;;;;;;;;5017967;28;20268;-81
2023/11/29 09:14:33;;;;;;;12.18;9.80;;;;;;;;;;5019423;28;20212;-81
2023/11/29 09:16:59;;;;;;;14.57;8.73;;;;;;;;;;5018578;28;20182;-81
2023/11/29 09:19:25;;;;;;;16.37;12.30;;;;;;;;;;5019178;28;20535;-81
2023/11/29 09:21:51;;;;;;;14.65;9.70;;;;;;;;;;5018335;28;20474;-81
2023/11/29 09:24:17;;;;;;;10.95;8.07;;;;;;;;;;5019488;28;20205;-81
2023/11/29 09:26:43;;;;;;;12.68;10.25;;;;;;;;;;5019672;28;20226;-81
2023/11/29 09:29:09;;;;;;;12.57;9.25;;;;;;;;;;5019155;28;20519;-80
2023/11/29 09:31:35;;;;;;;16.75;8.40;;;;;;;;;;5018214;28;20178;-81
2023/11/29 09:34:01;;;;;;;14.13;10.70;;;;;;;;;;5018941;28;20186;-81
2023/11/29 09:36:27;;;;;;;10.50;7.30;;;;;;;;;;5019574;28;20405;-81
2023/11/29 09:38:53;;;;;;;15.67;10.23;;;;;;;;;;5019812;28;20187;-80
2023/11/29 09:41:19;;;;;;;12.30;8.60;;;;;;;;;;5020700;28;20448;-81
2023/11/29 09:43:45;;;;;;;11.10;8.40;;;;;;;;;;5023553;28;20413;-80
2023/11/29 09:46:11;;;;;;;17.08;11.43;;;;;;;;;;5022704;28;20433;-80
2023/11/29 09:48:37;;;;;;;15.70;10.43;;;;;;;;;;5022838;28;20205;-80
2023/11/29 09:51:04;;;;;;;18.13;9.35;;;;;;;;;;5038569;28;20178;-79
2023/11/29 09:53:30;;;;;;;9.63;7.88;;;;;;;;;;5023032;28;20216;-80
2023/11/29 09:55:56;;;;;;;12.57;8.88;;;;;;;;;;5023116;28;20182;-79
2023/11/29 09:58:23;;;;;;;9.60;7.00;;;;;;;;;;5023239;28;20179;-80
2023/11/29 10:00:49;;;;;;;13.25;8.93;;;;;;;;;;5022639;28;20177;-80
2023/11/29 10:03:15;;;;;;;12.30;7.85;;;;;;;;;;5022961;28;20186;-80
2023/11/29 10:05:48;;;;;;;13.52;8.82;;;;;;;;;;5023821;28;20255;-80
2023/11/29 10:08:21;;;;;;;12.70;9.57;;;;;;;;;;5027157;28;20170;-80
2023/11/29 10:10:47;;;;;;;10.65;8.93;;;;;;;;;;5023237;28;20182;-80
2023/11/29 10:13:17;;;;;;;13.40;8.60;;;;;;;;;;5022762;28;20236;-80
2023/11/29 10:15:46;;;;;;;14.82;9.90;;;;;;;;;;5022285;28;20190;-80
2023/11/29 10:18:13;;;;;;;11.57;8.88;;;;;;;;;;5022704;28;20171;-79
2023/11/29 10:20:39;;;;;;;14.90;10.55;;;;;;;;;;5021758;28;20195;-80
2023/11/29 10:23:05;;;;;;;14.13;9.67;;;;;;;;;;5021938;28;20190;-80
2023/11/29 10:25:32;;;;;;;12.80;8.80;;;;;;;;;;5022104;28;20469;-81
2023/11/29 10:27:59;;;;;;;13.13;9.88;;;;;;;;;;5024708;28;20317;-78
2023/11/29 10:30:25;;;;;;;11.45;8.77;;;;;;;;;;5025483;28;20229;-79
2023/11/29 10:32:51;;;;;;;12.13;9.87;;;;;;;;;;5021831;28;20555;-79
2023/11/29 10:35:19;;;;;;;11.50;9.05;;;;;;;;;;5022376;28;20413;-79
2023/11/29 10:37:47;;;;;;;12.30;7.60;;;;;;;;;;5024739;28;20174;-79
2023/11/29 10:40:14;;;;;;;11.68;9.18;;;;;;;;;;5021909;28;20186;-80
2023/11/29 10:42:41;;;;;;;12.95;10.23;;;;;;;;;;5022417;28;20201;-80
2023/11/29 10:45:08;;;;;;;10.48;8.70;;;;;;;;;;5022520;28;20253;-79
2023/11/29 10:47:38;;;;;;;15.43;8.48;;;;;;;;;;5022095;28;20187;-81
2023/11/29 10:50:07;;;;;;;10.07;7.13;;;;;;;;;;5022386;28;20183;-78
2023/11/29 10:52:34;;;;;;;9.00;7.35;;;;;;;;;;5021687;28;20206;-80
2023/11/29 10:55:00;;;;;;;23.80;11.23;;;;;;;;;;5022339;28;20532;-80
2023/11/29 10:57:35;;;;;;;12.18;8.50;;;;;;;;;;5022978;28;20178;-80
2023/11/29 11:00:06;;;;;;;9.80;8.75;;;;;;;;;;5023158;28;20178;-79
2023/11/29 11:02:32;;;;;;;11.07;8.27;;;;;;;;;;5021781;28;20169;-79
2023/11/29 11:05:05;;;;;;;12.00;8.73;;;;;;;;;;5022265;28;20216;-79
2023/11/29 11:07:43;;;;;;;10.02;7.70;;;;;;;;;;5022425;28;20419;-79
2023/11/29 11:10:15;;;;;;;9.98;7.70;;;;;;;;;;5021968;28;20514;-81
2023/11/29 11:12:42;;;;;;;13.50;8.30;;;;;;;;;;5022302;28;20171;-79
2023/11/29 11:15:14;;;;;;;11.23;7.75;;;;;;;;;;5022351;28;20175;-79
2023/11/29 11:17:40;;;;;;;8.05;7.00;;;;;;;;;;5025479;28;20166;-79
2023/11/29 11:20:10;;;;;;;10.57;7.35;;;;;;;;;;5021691;28;20174;-80
2023/11/29 11:22:41;;;;;;;6.82;5.88;;;;;;;;;;5022644;28;20174;-79
2023/11/29 11:25:11;;;;;;;7.47;6.03;;;;;;;;;;5022314;28;20202;-79
2023/11/29 11:27:47;;;;;;;5.90;5.20;;;;;;;;;;5022181;28;20288;-79
2023/11/29 11:30:17;;;;;;;6.13;5.50;;;;;;;;;;5020139;28;20193;-79
2023/11/29 11:32:47;;;;;;;7.20;5.60;;;;;;;;;;5021440;28;20537;-80
2023/11/29 11:37:46;;;;;;;6.20;5.30;;;;;;;;;;5021854;28;20183;-80
2023/11/29 11:40:12;;;;;;;8.10;5.20;;;;;;;;;;5020977;28;20184;-78
2023/11/29 11:42:39;;;;;;;6.30;5.45;;;;;;;;;;5020657;28;20173;-79
2023/11/29 11:45:06;;;;;;;6.47;4.70;;;;;;;;;;5022313;28;20209;-79
2023/11/29 11:47:32;;;;;;;5.95;3.80;;;;;;;;;;5022532;28;20180;-82
2023/11/29 11:49:58;;;;;;;6.15;3.90;;;;;;;;;;5021982;28;20186;-79
2023/11/29 11:52:25;;;;;;;5.18;4.50;;;;;;;;;;5022080;28;20504;-78
2023/11/29 11:54:51;;;;;;;5.28;4.57;;;;;;;;;;5021961;28;20644;-78
2023/11/29 11:57:17;;;;;;;6.13;4.63;;;;;;;;;;5022748;28;20190;-78
2023/11/29 11:59:43;;;;;;;6.47;4.60;;;;;;;;;;5022038;28;20413;-78
2023/11/29 12:02:09;;;;;;;9.27;5.28;;;;;;;;;;5022381;28;20421;-79
2023/11/29 12:04:35;;;;;;;5.25;4.75;;;;;;;;;;5021121;28;20628;-80
2023/11/29 12:07:03;;;;;;;6.60;5.10;;;;;;;;;;5022231;28;20256;-79
2023/11/29 12:09:29;;;;;;;7.28;4.43;;;;;;;;;;5021880;28;20412;-78
2023/11/29 12:12:08;;;;;;;6.55;5.30;;;;;;;;;;5021463;28;20217;-79
2023/11/29 12:14:34;;;;;;;10.35;5.78;;;;;;;;;;5021216;28;20186;-79
2023/11/29 12:17:00;;;;;;;6.57;5.57;;;;;;;;;;5020611;28;20206;-79
2023/11/29 12:19:26;;;;;;;7.55;5.45;;;;;;;;;;5021252;28;20194;-79
2023/11/29 12:21:52;;;;;;;6.45;5.85;;;;;;;;;;5021428;28;20548;-78
2023/11/29 12:24:18;;;;;;;9.23;7.40;;;;;;;;;;5021199;28;20230;-78
2023/11/29 12:26:46;;;;;;;7.60;6.40;;;;;;;;;;5020914;28;21018;-79
2023/11/29 12:29:15;;;;;;;6.40;5.70;;;;;;;;;;5021115;28;20983;-79
2023/11/29 12:31:43;;;;;;;7.43;4.95;;;;;;;;;;5021504;28;20184;-78
2023/11/29 12:34:09;;;;;;;6.90;4.30;;;;;;;;;;5021424;28;20174;-78
2023/11/29 12:36:35;;;;;;;5.72;4.97;;;;;;;;;;5021047;28;20238;-80
2023/11/29 12:39:01;;;;;;;5.22;4.75;;;;;;;;;;5021316;28;20178;-78
2023/11/29 12:41:27;;;;;;;5.03;3.90;;;;;;;;;;5019627;28;20182;-79
2023/11/29 12:43:53;;;;;;;8.50;5.67;;;;;;;;;;5021088;28;20797;-78
2023/11/29 12:46:19;;;;;;;5.80;4.50;;;;;;;;;;5020778;28;20758;-79
2023/11/29 12:48:45;;;;;;;3.33;3.03;;;;;;;;;;5020480;28;20201;-79
2023/11/29 12:51:14;;;;;;;6.77;4.57;;;;;;;;;;5020687;28;20186;-78
2023/11/29 12:53:40;;;;;;;7.07;4.90;;;;;;;;;;5020830;28;20413;-78
2023/11/29 12:56:07;;;;;;;4.75;4.20;;;;;;;;;;5020951;28;20179;-78
2023/11/29 12:58:33;;;;;;;5.55;5.05;;;;;;;;;;5021162;28;20178;-78
2023/11/29 13:00:59;;;;;;;7.25;4.40;;;;;;;;;;5020801;28;20174;-78
2023/11/29 13:03:25;;;;;;;12.00;5.77;;;;;;;;;;5021502;28;20201;-78
2023/11/29 13:05:51;;;;;;;7.22;5.25;;;;;;;;;;5020531;28;20476;-78
2023/11/29 13:08:17;;;;;;;7.03;5.30;;;;;;;;;;5021143;28;20214;-78
2023/11/29 13:10:43;;;;;;;8.00;6.28;;;;;;;;;;5020942;28;20178;-78
2023/11/29 13:13:09;;;;;;;6.40;4.50;;;;;;;;;;5021259;28;20185;-78
2023/11/29 13:15:35;;;;;;;9.38;5.55;;;;;;;;;;5020063;28;20194;-78
2023/11/29 13:18:01;;;;;;;6.18;5.00;;;;;;;;;;5036095;28;20171;-78
2023/11/29 13:20:28;;;;;;;9.13;5.27;;;;;;;;;;5021462;28;20183;-78
2023/11/29 13:22:54;;;;;;;5.65;4.80;;;;;;;;;;5020694;28;20403;-79
2023/11/29 13:25:20;;;;;;;7.05;5.25;;;;;;;;;;5020486;28;20205;-78
2023/11/29 13:27:46;;;;;;;7.25;5.63;;;;;;;;;;5020168;28;20235;-79
2023/11/29 13:30:12;;;;;;;10.55;5.75;;;;;;;;;;5020914;28;20708;-79
2023/11/29 13:32:38;;;;;;;6.20;5.20;;;;;;;;;;5020849;28;20179;-79
2023/11/29 13:35:04;;;;;;;5.70;5.10;;;;;;;;;;5020916;28;20646;-78
2023/11/29 13:37:30;;;;;;;7.38;5.35;;;;;;;;;;5020861;28;20750;-78
2023/11/29 13:39:56;;;;;;;7.40;5.82;;;;;;;;;;5020831;28;20197;-78
2023/11/29 13:42:22;;;;;;;6.80;6.00;;;;;;;;;;5021021;28;20182;-78
2023/11/29 13:44:48;;;;;;;5.90;5.30;;;;;;;;;;5020160;28;20513;-78
2023/11/29 13:47:14;;;;;;;6.00;5.50;;;;;;;;;;5020218;28;20407;-78
2023/11/29 13:49:40;;;;;;;5.77;5.10;;;;;;;;;;5020359;28;20412;-78
2023/11/29 13:52:06;;;;;;;5.10;4.60;;;;;;;;;;5020749;28;20760;-78
2023/11/29 13:54:32;;;;;;;8.07;5.93;;;;;;;;;;5020368;28;20219;-78
2023/11/29 13:56:58;;;;;;;5.65;4.25;;;;;;;;;;5020110;28;20187;-78
2023/11/29 13:59:24;;;;;;;6.63;4.70;;;;;;;;;;5020886;28;20583;-78
2023/11/29 14:01:50;;;;;;;9.15;5.60;;;;;;;;;;5020722;28;20403;-78
2023/11/29 14:04:16;;;;;;;8.95;5.45;;;;;;;;;;5020748;28;20210;-78
2023/11/29 14:06:42;;;;;;;7.77;4.57;;;;;;;;;;5020969;28;20179;-78
2023/11/29 14:09:08;;;;;;;6.03;4.90;;;;;;;;;;5021010;28;20404;-78
2023/11/29 14:11:37;;;;;;;4.75;3.40;;;;;;;;;;5020619;28;20760;-78
2023/11/29 14:14:03;;;;;;;7.50;5.15;;;;;;;;;;5019978;28;20197;-78
2023/11/29 14:16:29;;;;;;;20.38;11.15;;;;;;;;;;5020659;28;20531;-78
2023/11/29 14:18:55;;;;;;;9.57;4.77;;;;;;;;;;5020638;28;20274;-78
2023/11/29 14:21:21;;;;;;;6.83;6.13;;;;;;;;;;5020904;28;20743;-78
2023/11/29 14:23:47;;;;;;;6.60;4.40;;;;;;;;;;5019806;28;20443;-78
2023/11/29 14:26:13;;;;;;;5.17;4.30;;;;;;;;;;5019886;28;20421;-78
2023/11/29 14:28:39;;;;;;;5.27;3.93;;;;;;;;;;5023169;28;20423;-78